地図

経路データ

SID SEASON NUMBER BASIN SUBBASIN NAME ISO_TIME NATURE LAT LON WMO_WIND WMO_PRES WMO_AGENCY TRACK_TYPE DIST2LAND LANDFALL IFLAG USA_AGENCY USA_ATCF_ID USA_LAT USA_LON USA_RECORD USA_STATUS USA_WIND USA_PRES USA_SSHS USA_R34_NE USA_R34_SE USA_R34_SW USA_R34_NW USA_R50_NE USA_R50_SE USA_R50_SW USA_R50_NW USA_R64_NE USA_R64_SE USA_R64_SW USA_R64_NW USA_POCI USA_ROCI USA_RMW USA_EYE TOKYO_LAT TOKYO_LON TOKYO_GRADE TOKYO_WIND TOKYO_PRES TOKYO_R50_DIR TOKYO_R50_LONG TOKYO_R50_SHORT TOKYO_R30_DIR TOKYO_R30_LONG TOKYO_R30_SHORT TOKYO_LAND CMA_LAT CMA_LON CMA_CAT CMA_WIND CMA_PRES HKO_LAT HKO_LON HKO_CAT HKO_WIND HKO_PRES NEWDELHI_LAT NEWDELHI_LON NEWDELHI_GRADE NEWDELHI_WIND NEWDELHI_PRES NEWDELHI_CI NEWDELHI_DP NEWDELHI_POCI REUNION_LAT REUNION_LON REUNION_TYPE REUNION_WIND REUNION_PRES REUNION_TNUM REUNION_CI REUNION_RMW REUNION_R34_NE REUNION_R34_SE REUNION_R34_SW REUNION_R34_NW REUNION_R50_NE REUNION_R50_SE REUNION_R50_SW REUNION_R50_NW REUNION_R64_NE REUNION_R64_SE REUNION_R64_SW REUNION_R64_NW BOM_LAT BOM_LON BOM_TYPE BOM_WIND BOM_PRES BOM_TNUM BOM_CI BOM_RMW BOM_R34_NE BOM_R34_SE BOM_R34_SW BOM_R34_NW BOM_R50_NE BOM_R50_SE BOM_R50_SW BOM_R50_NW BOM_R64_NE BOM_R64_SE BOM_R64_SW BOM_R64_NW BOM_ROCI BOM_POCI BOM_EYE BOM_POS_METHOD BOM_PRES_METHOD NADI_LAT NADI_LON NADI_CAT NADI_WIND NADI_PRES WELLINGTON_LAT WELLINGTON_LON WELLINGTON_WIND WELLINGTON_PRES DS824_LAT DS824_LON DS824_STAGE DS824_WIND DS824_PRES TD9636_LAT TD9636_LON TD9636_STAGE TD9636_WIND TD9636_PRES TD9635_LAT TD9635_LON TD9635_WIND TD9635_PRES TD9635_ROCI NEUMANN_LAT NEUMANN_LON NEUMANN_CLASS NEUMANN_WIND NEUMANN_PRES MLC_LAT MLC_LON MLC_CLASS MLC_WIND MLC_PRES USA_GUST BOM_GUST BOM_GUST_PER REUNION_GUST REUNION_GUST_PER USA_SEAHGT USA_SEARAD_NE USA_SEARAD_SE USA_SEARAD_SW USA_SEARAD_NW STORM_SPEED STORM_DIR
1928071S09097 1928 20 SI WA NOT_NAMED 1928-03-11 00:00:00 TS -8.55000 96.7500 main 790 797 _________O____ -1 -7.30000 98.3000 TC 25 5 211
1928071S09097 1928 20 SI WA NOT_NAMED 1928-03-11 03:00:00 TS -8.77255 96.6188 main 828 828 _________P____ -1 -7.64259 97.8901 TC 25 5 209
1928071S09097 1928 20 SI WA NOT_NAMED 1928-03-11 06:00:00 TS -9.00000 96.5000 main 851 851 _________O____ -1 -8.00000 97.5000 TC 25 5 205
1928071S09097 1928 20 SI WA NOT_NAMED 1928-03-11 09:00:00 TS -9.23873 96.4000 main 874 874 _________P____ -1 -8.38495 97.1424 TC 25 5 202
1928071S09097 1928 20 SI WA NOT_NAMED 1928-03-11 12:00:00 TS -9.50000 96.3000 main 905 905 _________O____ -1 -8.80000 96.8000 TC 25 6 201
1928071S09097 1928 20 SI WA NOT_NAMED 1928-03-11 15:00:00 TS -9.78874 96.1825 main 936 936 _________P____ -1 -9.24249 96.4425 TC 25 7 202
1928071S09097 1928 20 SI WA NOT_NAMED 1928-03-11 18:00:00 TS -10.1000 96.0500 main 967 967 _________O____ -1 -9.70000 96.1000 TC 25 7 204
1928071S09097 1928 20 SI WA NOT_NAMED 1928-03-11 21:00:00 TS -10.4250 95.9000 main 1006 1006 _________P____ -1 -10.1800 95.7626 TC 25 7 205
1928071S09097 1928 20 SI WA NOT_NAMED 1928-03-12 00:00:00 TS -10.7500 95.7500 main 1038 1046 _________O____ -1 -10.6000 95.5000 TC 25 7 204
1928071S09097 1928 20 SI WA NOT_NAMED 1928-03-12 03:00:00 TS -11.0500 95.6175 main 1077 1077 _________P____ -1 -10.8724 95.3549 TC 25 7 202
1928071S09097 1928 20 SI WA NOT_NAMED 1928-03-12 06:00:00 TS -11.3500 95.5000 main 1109 1117 _________O____ -1 -11.1000 95.3000 TC 25 7 199
1928071S09097 1928 20 SI WA NOT_NAMED 1928-03-12 09:00:00 TS -11.6750 95.3962 main 1149 1149 _________P____ -1 -11.3925 95.2775 TC 25 7 197
1928071S09097 1928 20 SI WA NOT_NAMED 1928-03-12 12:00:00 TS -12.0000 95.3000 main 1182 1182 _________O____ -1 -11.7000 95.3000 TC 25 7 197
1928071S09097 1928 20 SI WA NOT_NAMED 1928-03-12 15:00:00 TS -12.3075 95.2037 main 1214 1214 _________P____ -1 -12.0075 95.3425 TC 25 6 195
1928071S09097 1928 20 SI WA NOT_NAMED 1928-03-12 18:00:00 TS -12.5571 95.1429 main 1247 1247 _________O____ -1 -12.3000 95.4000 TC 25 5 189
1928071S09097 1928 20 SI WA NOT_NAMED 1928-03-12 21:00:00 TS -12.7558 95.1210 main 1264 1264 _________P____ -1 -12.5350 95.4276 TC 25 4 165
1928071S09097 1928 20 SI WA NOT_NAMED 1928-03-13 00:00:00 TS -12.9400 95.2400 main 1265 1253 _________O____ -1 -12.8000 95.5000 TC 25 7 130
1928071S09097 1928 20 SI WA NOT_NAMED 1928-03-13 03:00:00 TS -13.1925 95.6625 main 1255 1255 _________P____ -1 -13.1925 95.6625 TC 25 9 136
1928071S09097 1928 20 SI WA NOT_NAMED 1928-03-13 06:00:00 TS -13.6000 95.9000 main 1271 1265 _________O____ -1 -13.6000 95.9000 TC 25 9 146
1928071S09097 1928 20 SI WA NOT_NAMED 1928-03-13 09:00:00 TS -13.9224 96.1701 main 1265 1261 _________P____ -1 -13.9224 96.1701 TC 25 8 136
1928071S09097 1928 20 SI WA NOT_NAMED 1928-03-13 12:00:00 TS -14.2000 96.5000 main 1261 1251 _________O____ -1 -14.2000 96.5000 TC 25 9 129
1928071S09097 1928 20 SI WA NOT_NAMED 1928-03-13 15:00:00 TS -14.4724 96.8700 main 1251 1235 _________P____ -1 -14.4724 96.8700 TC 25 9 123
1928071S09097 1928 20 SI WA NOT_NAMED 1928-03-13 18:00:00 TS -14.7000 97.3000 main 1235 1213 _________O____ -1 -14.7000 97.3000 TC 25 10 114
1928071S09097 1928 20 SI WA NOT_NAMED 1928-03-13 21:00:00 TS -14.8678 97.7849 main 1214 1187 _________P____ -1 -14.8678 97.7849 TC 25 10 107
1928071S09097 1928 20 SI WA NOT_NAMED 1928-03-14 00:00:00 TS -15.0000 98.3000 main 1187 _________O____ -1 -15.0000 98.3000 TC 25 10 105

IBTrACS Databaseについて

本データベースは、米国NOAAが公開する1842年以降の世界の熱帯低気圧のベストトラックデータアーカイブInternational Best Track Archive for Climate Stewardship (IBTrACS)を、ウェブで閲覧しやすい形式に変換したものです。

最終更新日:2021-12-03